Time;durP1;ratioP1;P1;durP2;ratioP2;P2;SDS_P1;SDS_P2;PMS_P1;PMS_P2;Temp;Humidity;BMP_temperature;BMP_pressure;BME280_temperature;BME280_humidity;BME280_pressure;Samples;Min_cycle;Max_cycle;Signal;HPM_P1;HPM_P2
2021/12/20 00:02:05;;;;;;;25.55;4.78;;;14.90;86.70;;;;;;4243549;27;20126;-61
2021/12/20 00:04:27;;;;;;;24.75;4.72;;;14.90;86.80;;;;;;4243525;27;20046;-61
2021/12/20 00:06:49;;;;;;;21.27;3.22;;;14.90;87.80;;;;;;4243226;27;20175;-61
2021/12/20 00:09:11;;;;;;;21.08;4.50;;;14.90;86.80;;;;;;4240255;27;20116;-60
2021/12/20 00:11:34;;;;;;;18.38;3.53;;;14.90;86.80;;;;;;4219602;27;20043;-61
2021/12/20 00:13:56;;;;;;;18.25;3.70;;;14.90;86.80;;;;;;4226890;27;20080;-61
2021/12/20 00:16:18;;;;;;;19.77;4.10;;;14.90;86.80;;;;;;4226602;28;20054;-61
2021/12/20 00:18:42;;;;;;;16.35;3.80;;;14.90;87.70;;;;;;4226282;27;20443;-61
2021/12/20 00:21:05;;;;;;;18.52;3.70;;;14.90;86.80;;;;;;4226599;28;20122;-61
2021/12/20 00:23:27;;;;;;;18.85;3.33;;;14.90;87.00;;;;;;4226578;27;20047;-61
2021/12/20 00:25:49;;;;;;;16.60;3.63;;;14.90;86.80;;;;;;4225422;27;20051;-61
2021/12/20 00:28:11;;;;;;;17.83;4.00;;;14.90;86.70;;;;;;4226434;28;20094;-60
2021/12/20 00:30:33;;;;;;;24.27;4.40;;;14.90;86.50;;;;;;4226343;27;20051;-60
2021/12/20 00:32:55;;;;;;;21.38;3.50;;;14.80;86.60;;;;;;4224898;28;20051;-59
2021/12/20 00:35:24;;;;;;;21.33;3.60;;;14.80;86.60;;;;;;4225819;28;20399;-61
2021/12/20 00:40:26;;;;;;;18.52;4.55;;;14.80;87.30;;;;;;4224846;28;20498;-59
2021/12/20 00:42:49;;;;;;;17.08;3.88;;;14.80;87.50;;;;;;4225911;27;20039;-60
2021/12/20 00:45:13;;;;;;;19.50;4.40;;;14.80;87.50;;;;;;4225983;27;21268;-61
2021/12/20 00:47:35;;;;;;;20.60;3.38;;;14.80;87.40;;;;;;4208948;28;20427;-60
2021/12/20 00:49:57;;;;;;;19.17;2.97;;;14.80;87.50;;;;;;4209309;28;20052;-59
2021/12/20 00:52:21;;;;;;;17.80;3.70;;;14.80;87.30;;;;;;4191316;28;20044;-60
2021/12/20 00:54:43;;;;;;;13.73;3.40;;;14.80;87.30;;;;;;4192169;28;20048;-59
2021/12/20 00:57:06;;;;;;;19.15;3.28;;;14.80;87.60;;;;;;4213768;28;20113;-59
2021/12/20 00:59:28;;;;;;;14.40;3.45;;;14.70;87.70;;;;;;4223618;27;20093;-60
2021/12/20 01:01:50;;;;;;;25.42;3.30;;;14.80;87.70;;;;;;4225969;28;20135;-59
2021/12/20 01:04:12;;;;;;;18.02;3.20;;;14.80;87.70;;;;;;4225826;28;20104;-59
2021/12/20 01:06:34;;;;;;;19.52;3.25;;;14.70;87.50;;;;;;4225482;27;20044;-60
2021/12/20 01:08:58;;;;;;;13.00;3.40;;;14.70;87.50;;;;;;4225405;28;20414;-60
2021/12/20 01:11:23;;;;;;;16.65;2.65;;;14.70;87.60;;;;;;4225896;28;20055;-60
2021/12/20 01:13:46;;;;;;;13.32;3.33;;;14.70;87.70;;;;;;4225653;28;20050;-60
2021/12/20 01:16:12;;;;;;;18.75;3.65;;;14.70;87.90;;;;;;4225233;27;20158;-60
2021/12/20 01:18:34;;;;;;;12.68;3.10;;;14.70;87.80;;;;;;4225165;27;20473;-59
2021/12/20 01:20:56;;;;;;;19.98;3.40;;;14.70;87.90;;;;;;4224658;28;20467;-60
2021/12/20 01:23:19;;;;;;;19.25;3.35;;;14.70;87.80;;;;;;4225472;27;20047;-60
2021/12/20 01:25:43;;;;;;;25.02;3.72;;;14.70;87.70;;;;;;4225182;28;20043;-60
2021/12/20 01:28:07;;;;;;;17.27;3.30;;;14.70;87.80;;;;;;4224885;28;20051;-61
2021/12/20 01:30:29;;;;;;;17.20;3.03;;;14.70;87.90;;;;;;4225314;27;20118;-60
2021/12/20 01:32:52;;;;;;;21.20;3.25;;;14.70;87.80;;;;;;4225539;27;20558;-60
2021/12/20 01:35:14;;;;;;;19.20;2.92;;;14.70;87.90;;;;;;4224118;28;20494;-60
2021/12/20 01:37:36;;;;;;;13.73;3.42;;;14.60;87.90;;;;;;4225547;28;20051;-60
2021/12/20 01:39:59;;;;;;;17.25;2.80;;;14.70;87.90;;;;;;4225478;28;20065;-60
2021/12/20 01:42:23;;;;;;;12.85;2.65;;;14.60;88.10;;;;;;4225494;28;20059;-61
2021/12/20 01:44:45;;;;;;;17.00;3.92;;;14.60;88.10;;;;;;4225096;28;20054;-61
2021/12/20 01:47:08;;;;;;;13.05;2.50;;;14.60;88.20;;;;;;4225028;28;20471;-61
2021/12/20 01:49:39;;;;;;;12.93;3.30;;;14.60;88.10;;;;;;4236929;27;20047;-61
2021/12/20 01:52:11;;;;;;;18.80;3.10;;;14.60;88.20;;;;;;4225173;28;20134;-61
2021/12/20 01:54:33;;;;;;;12.13;2.47;;;14.60;88.40;;;;;;4208428;28;20040;-61
2021/12/20 01:56:58;;;;;;;15.63;3.13;;;14.60;88.60;;;;;;4208486;28;20067;-61
2021/12/20 01:59:22;;;;;;;12.13;2.88;;;14.60;88.60;;;;;;4208519;28;20059;-61
2021/12/20 02:01:45;;;;;;;13.55;2.75;;;14.60;88.50;;;;;;4208469;28;20514;-61
2021/12/20 02:04:09;;;;;;;13.63;2.70;;;14.60;88.50;;;;;;4223111;28;20142;-61
2021/12/20 02:06:35;;;;;;;13.23;2.85;;;14.60;88.60;;;;;;4208429;28;20495;-61
2021/12/20 02:08:59;;;;;;;16.17;3.28;;;14.60;88.70;;;;;;4208096;28;20123;-60
2021/12/20 02:11:22;;;;;;;12.27;2.35;;;14.60;88.70;;;;;;4208508;28;20135;-61
2021/12/20 02:13:43;;;;;;;11.88;2.45;;;14.50;88.60;;;;;;4208223;28;20135;-61
2021/12/20 02:16:08;;;;;;;17.38;3.40;;;14.50;88.60;;;;;;4208249;28;20048;-61
2021/12/20 02:18:32;;;;;;;22.02;3.53;;;14.50;88.60;;;;;;4208445;28;20051;-61
2021/12/20 02:20:56;;;;;;;13.38;2.70;;;14.50;88.70;;;;;;4217797;28;20077;-61
2021/12/20 02:23:18;;;;;;;11.90;3.33;;;14.50;88.70;;;;;;4225312;28;20040;-61
2021/12/20 02:25:40;;;;;;;18.23;3.67;;;14.50;88.70;;;;;;4225295;28;20130;-61
2021/12/20 02:28:05;;;;;;;52.25;14.75;;;14.50;88.90;;;;;;4208448;28;20481;-61
2021/12/20 02:30:38;;;;;;;24.30;6.60;;;14.50;88.80;;;;;;4207430;28;20060;-61
2021/12/20 02:38:33;;;;;;;12.73;3.95;;;14.40;89.10;;;;;;4227295;27;20054;-61
2021/12/20 02:40:58;;;;;;;30.13;4.63;;;14.40;89.30;;;;;;4228178;27;21582;-61
2021/12/20 02:43:20;;;;;;;14.55;3.80;;;14.40;89.90;;;;;;4227926;27;20490;-60
2021/12/20 02:45:43;;;;;;;22.35;5.03;;;14.40;89.20;;;;;;4227862;27;20069;-61
2021/12/20 02:48:05;;;;;;;13.88;3.63;;;14.40;89.00;;;;;;4228033;27;20048;-60
2021/12/20 02:50:27;;;;;;;10.45;2.70;;;14.40;89.00;;;;;;4227765;27;20461;-61
2021/12/20 02:52:49;;;;;;;17.92;2.65;;;14.40;89.00;;;;;;4227746;27;20051;-61
2021/12/20 02:55:13;;;;;;;10.38;2.88;;;14.40;89.00;;;;;;4227700;28;20055;-59
2021/12/20 02:57:35;;;;;;;18.75;3.08;;;14.40;89.00;;;;;;4227728;27;20078;-60
2021/12/20 02:59:57;;;;;;;12.30;3.42;;;14.40;89.00;;;;;;4227516;27;20233;-59
2021/12/20 03:02:22;;;;;;;15.43;3.80;;;14.40;89.00;;;;;;4227841;27;20043;-59
2021/12/20 03:04:44;;;;;;;22.65;4.95;;;14.40;89.10;;;;;;4227293;27;20122;-59
2021/12/20 03:07:09;;;;;;;22.40;5.35;;;14.40;89.30;;;;;;4227746;27;20055;-59
2021/12/20 03:09:35;;;;;;;22.55;5.32;;;14.30;89.20;;;;;;4227322;27;20502;-60
2021/12/20 03:12:01;;;;;;;36.78;8.50;;;14.30;89.20;;;;;;4227514;27;20043;-59
2021/12/20 03:14:27;;;;;;;33.70;7.90;;;14.30;89.10;;;;;;4235343;27;20043;-59
2021/12/20 03:16:49;;;;;;;16.52;4.03;;;14.30;89.30;;;;;;4227540;27;20070;-60
2021/12/20 03:19:12;;;;;;;16.45;4.13;;;14.30;89.30;;;;;;4226200;27;20075;-59
2021/12/20 03:21:34;;;;;;;11.77;2.67;;;14.30;89.30;;;;;;4244414;27;20039;-59
2021/12/20 03:23:56;;;;;;;13.02;3.00;;;14.30;89.20;;;;;;4242539;27;20119;-59
2021/12/20 03:26:18;;;;;;;10.45;2.63;;;14.30;89.20;;;;;;4243621;27;20517;-59
2021/12/20 03:28:42;;;;;;;15.57;2.63;;;14.30;89.10;;;;;;4244473;27;20043;-59
2021/12/20 03:31:03;;;;;;;14.63;2.42;;;14.20;89.20;;;;;;4233596;27;20051;-59
2021/12/20 03:33:25;;;;;;;12.50;2.13;;;14.30;89.30;;;;;;4226620;27;20063;-59
2021/12/20 03:35:47;;;;;;;10.93;2.10;;;14.20;89.10;;;;;;4227147;27;20364;-60
2021/12/20 03:38:09;;;;;;;8.45;2.28;;;14.20;89.10;;;;;;4227135;27;20071;-59
2021/12/20 03:40:32;;;;;;;15.65;2.22;;;14.20;89.20;;;;;;4226777;27;20067;-59
2021/12/20 03:42:54;;;;;;;16.08;2.30;;;14.20;89.20;;;;;;4226876;27;20054;-59
2021/12/20 03:45:18;;;;;;;14.95;3.22;;;14.20;89.20;;;;;;4226816;27;20071;-60
2021/12/20 03:47:40;;;;;;;11.93;1.98;;;14.20;89.20;;;;;;4239864;27;20043;-59
2021/12/20 03:50:03;;;;;;;15.60;2.65;;;14.20;89.20;;;;;;4243779;27;20050;-59
2021/12/20 03:52:25;;;;;;;8.07;2.00;;;14.20;89.20;;;;;;4242883;27;20043;-58
2021/12/20 03:54:47;;;;;;;6.75;2.15;;;14.20;89.20;;;;;;4243941;27;20095;-60
2021/12/20 03:57:09;;;;;;;14.52;2.70;;;14.20;89.20;;;;;;4242124;27;20067;-59
2021/12/20 03:59:33;;;;;;;8.48;1.88;;;14.20;89.20;;;;;;4243304;27;20051;-59
2021/12/20 04:01:57;;;;;;;7.78;2.03;;;14.20;89.70;;;;;;4242176;27;20049;-59
2021/12/20 04:04:20;;;;;;;7.72;2.35;;;14.20;88.60;;;;;;4242208;27;20047;-59
2021/12/20 04:06:42;;;;;;;8.63;2.10;;;14.20;89.20;;;;;;4243799;27;20043;-60
2021/12/20 04:09:04;;;;;;;8.98;2.10;;;14.30;89.70;;;;;;4243420;27;20407;-59
2021/12/20 04:11:26;;;;;;;8.05;1.83;;;14.40;89.50;;;;;;4243471;27;20054;-59
2021/12/20 04:13:49;;;;;;;10.82;2.25;;;14.40;89.00;;;;;;4225221;27;20139;-59
2021/12/20 04:16:12;;;;;;;13.98;2.42;;;14.50;89.10;;;;;;4226759;27;20097;-59
2021/12/20 04:18:35;;;;;;;9.85;2.20;;;14.60;89.90;;;;;;4226394;27;20401;-59
2021/12/20 04:21:00;;;;;;;11.18;2.80;;;14.60;88.60;;;;;;4225994;27;20081;-59
2021/12/20 04:23:22;;;;;;;9.23;2.90;;;14.70;88.40;;;;;;4243652;27;20043;-60
2021/12/20 04:25:45;;;;;;;13.73;2.05;;;14.70;88.10;;;;;;4243468;27;20050;-59
2021/12/20 04:28:07;;;;;;;9.68;1.85;;;14.70;87.80;;;;;;4241652;27;20040;-59
2021/12/20 04:30:31;;;;;;;12.45;2.60;;;14.80;87.70;;;;;;4243393;27;20078;-60
2021/12/20 04:32:53;;;;;;;14.02;2.13;;;14.80;87.00;;;;;;4242815;27;20071;-60
2021/12/20 04:35:17;;;;;;;9.60;2.58;;;14.80;87.30;;;;;;4243182;27;20090;-59
2021/12/20 04:37:42;;;;;;;10.98;2.67;;;14.80;87.40;;;;;;4227449;27;20055;-60
2021/12/20 04:40:08;;;;;;;10.45;2.42;;;14.80;87.40;;;;;;4226052;28;20062;-60
2021/12/20 04:42:31;;;;;;;8.98;2.15;;;14.80;87.00;;;;;;4225939;28;20130;-60
2021/12/20 04:44:53;;;;;;;9.55;2.20;;;14.90;87.00;;;;;;4224990;28;20519;-60
2021/12/20 04:47:14;;;;;;;12.63;2.13;;;14.80;86.60;;;;;;4226247;28;20052;-60
2021/12/20 04:49:36;;;;;;;8.65;2.17;;;14.90;86.70;;;;;;4225984;28;20430;-59
2021/12/20 04:52:00;;;;;;;9.93;2.15;;;14.90;86.60;;;;;;4225865;27;20052;-59
2021/12/20 04:54:23;;;;;;;11.32;2.58;;;14.80;86.90;;;;;;4225853;27;20070;-60
2021/12/20 04:56:45;;;;;;;10.95;2.78;;;14.90;87.10;;;;;;4226069;27;20406;-59
2021/12/20 04:59:08;;;;;;;9.45;2.40;;;14.90;87.00;;;;;;4224919;27;20455;-59
2021/12/20 05:01:29;;;;;;;13.73;2.72;;;15.00;86.90;;;;;;4225569;27;20108;-60
2021/12/20 05:03:52;;;;;;;7.40;2.00;;;15.00;86.80;;;;;;4225811;28;20528;-59
2021/12/20 05:06:13;;;;;;;11.35;2.30;;;15.00;86.60;;;;;;4225194;28;20043;-58
2021/12/20 05:08:46;;;;;;;8.20;2.08;;;15.00;86.30;;;;;;4225590;27;20055;-60
2021/12/20 05:11:09;;;;;;;8.77;2.65;;;15.00;85.90;;;;;;4225199;28;20496;-59
2021/12/20 05:13:32;;;;;;;12.70;2.78;;;15.00;86.10;;;;;;4242359;27;20047;-60
2021/12/20 05:15:54;;;;;;;13.18;2.75;;;15.00;86.80;;;;;;4242410;27;20043;-59
2021/12/20 05:18:16;;;;;;;10.13;2.60;;;15.00;85.70;;;;;;4240841;27;20486;-60
2021/12/20 05:20:38;;;;;;;9.05;2.25;;;14.90;85.80;;;;;;4242564;27;20126;-59
2021/12/20 05:23:02;;;;;;;11.40;2.53;;;14.90;86.10;;;;;;4242744;27;20504;-59
2021/12/20 05:25:26;;;;;;;11.40;3.30;;;14.90;86.10;;;;;;4242227;27;20100;-60
2021/12/20 05:27:48;;;;;;;11.20;2.42;;;15.00;86.30;;;;;;4192024;28;20051;-59
2021/12/20 05:30:11;;;;;;;13.23;2.80;;;15.00;86.40;;;;;;4197897;27;20081;-59
2021/12/20 05:32:34;;;;;;;10.65;2.70;;;15.00;86.20;;;;;;4242397;27;20137;-59
2021/12/20 05:34:56;;;;;;;10.68;2.70;;;15.00;86.10;;;;;;4242772;27;20043;-60
2021/12/20 05:37:18;;;;;;;12.98;2.80;;;15.00;85.90;;;;;;4242159;27;20091;-59
2021/12/20 05:39:41;;;;;;;8.52;2.50;;;15.00;85.70;;;;;;4242491;27;20053;-59
2021/12/20 05:42:04;;;;;;;6.55;2.20;;;15.00;85.60;;;;;;4241567;27;20127;-60
2021/12/20 05:44:27;;;;;;;7.07;2.67;;;15.00;85.50;;;;;;4226067;27;20048;-61
2021/12/20 05:46:49;;;;;;;9.10;2.28;;;14.90;85.50;;;;;;4224944;28;20055;-61
2021/12/20 05:49:12;;;;;;;10.60;2.75;;;14.90;85.50;;;;;;4225595;28;20134;-60
2021/12/20 05:51:34;;;;;;;8.55;2.15;;;15.00;86.10;;;;;;4225027;28;20067;-60
2021/12/20 05:53:56;;;;;;;7.53;1.85;;;15.00;86.00;;;;;;4224264;28;20056;-59
2021/12/20 05:56:19;;;;;;;7.15;2.03;;;15.00;85.70;;;;;;4224635;28;20380;-60
2021/12/20 05:58:42;;;;;;;12.38;3.13;;;15.10;85.60;;;;;;4225058;28;20498;-60
2021/12/20 06:01:04;;;;;;;9.43;2.58;;;15.10;85.30;;;;;;4224982;28;20558;-59
2021/12/20 06:03:26;;;;;;;15.73;2.88;;;15.10;85.30;;;;;;4225222;28;20043;-59
2021/12/20 06:05:48;;;;;;;13.32;2.60;;;15.10;85.20;;;;;;4225208;28;20063;-60
2021/12/20 06:08:11;;;;;;;12.18;2.97;;;15.00;85.30;;;;;;4227422;27;20108;-59
2021/12/20 06:10:33;;;;;;;10.88;2.53;;;15.00;85.20;;;;;;4222407;27;20130;-59
2021/12/20 06:12:55;;;;;;;12.95;3.67;;;15.00;85.20;;;;;;4245465;27;20039;-60
2021/12/20 06:15:19;;;;;;;8.25;2.55;;;15.00;85.50;;;;;;4243488;27;20059;-60
2021/12/20 06:17:42;;;;;;;7.38;2.63;;;15.00;85.50;;;;;;4245378;27;20047;-59
2021/12/20 06:20:04;;;;;;;7.35;2.53;;;15.00;85.40;;;;;;4245319;27;20054;-59
2021/12/20 06:22:26;;;;;;;12.23;3.08;;;14.90;85.30;;;;;;4245409;27;20051;-59
2021/12/20 06:24:48;;;;;;;10.38;3.08;;;14.90;85.30;;;;;;4243852;27;20502;-59
2021/12/20 06:27:10;;;;;;;9.82;2.55;;;14.90;85.30;;;;;;4234685;27;20047;-60
2021/12/20 06:29:33;;;;;;;11.57;2.97;;;14.90;85.00;;;;;;4227812;27;20134;-59
2021/12/20 06:31:56;;;;;;;7.18;2.92;;;14.90;85.10;;;;;;4227772;27;20051;-59
2021/12/20 06:34:18;;;;;;;9.52;2.80;;;14.80;84.90;;;;;;4228206;28;20436;-60
2021/12/20 06:36:41;;;;;;;14.52;3.28;;;14.80;85.00;;;;;;4228201;28;20075;-61
2021/12/20 06:39:04;;;;;;;12.23;3.00;;;14.80;85.50;;;;;;4228340;27;20047;-61
2021/12/20 06:41:26;;;;;;;13.07;2.97;;;14.80;85.90;;;;;;4228127;27;20058;-60
2021/12/20 06:43:48;;;;;;;14.93;3.13;;;14.80;85.90;;;;;;4227698;28;20079;-63
2021/12/20 06:46:10;;;;;;;10.02;2.83;;;14.90;85.60;;;;;;4227876;27;20112;-62
2021/12/20 06:48:34;;;;;;;13.73;2.72;;;14.90;85.50;;;;;;4227772;27;20043;-61
2021/12/20 06:50:56;;;;;;;11.45;2.63;;;14.90;85.30;;;;;;4228110;27;20827;-61
2021/12/20 06:53:19;;;;;;;10.50;2.38;;;14.90;85.20;;;;;;4228007;28;20480;-61
2021/12/20 06:55:41;;;;;;;15.35;2.60;;;14.90;85.00;;;;;;4227890;27;20063;-61
2021/12/20 06:58:04;;;;;;;8.30;2.40;;;14.90;85.00;;;;;;4227961;27;20529;-62
2021/12/20 07:00:27;;;;;;;14.32;2.40;;;14.90;84.90;;;;;;4227738;28;20048;-60
2021/12/20 07:02:49;;;;;;;12.63;2.42;;;14.90;85.10;;;;;;4244798;27;20047;-60
2021/12/20 07:05:17;;;;;;;10.80;2.67;;;14.90;85.30;;;;;;4243081;27;20043;-62
2021/12/20 07:07:39;;;;;;;12.75;3.17;;;14.80;84.80;;;;;;4244506;27;20046;-61
2021/12/20 07:10:01;;;;;;;11.43;3.10;;;14.90;85.00;;;;;;4244687;27;20478;-61
2021/12/20 07:12:23;;;;;;;9.52;2.20;;;14.90;85.00;;;;;;4244322;27;20479;-61
2021/12/20 07:14:49;;;;;;;13.88;3.35;;;14.90;85.00;;;;;;4244506;27;20039;-64
2021/12/20 07:17:11;;;;;;;12.75;2.97;;;14.90;85.20;;;;;;4210584;28;20400;-61
2021/12/20 07:19:33;;;;;;;12.75;2.45;;;14.90;85.00;;;;;;4209844;28;20047;-61
2021/12/20 07:21:57;;;;;;;11.27;2.45;;;14.90;84.90;;;;;;4229161;27;20039;-61
2021/12/20 07:24:19;;;;;;;11.27;2.50;;;14.90;84.90;;;;;;4244003;27;20051;-62
2021/12/20 07:26:42;;;;;;;6.93;2.08;;;14.90;84.70;;;;;;4242919;27;20047;-61
2021/12/20 07:29:05;;;;;;;9.10;2.60;;;14.90;84.60;;;;;;4244195;27;20051;-62
2021/12/20 07:31:27;;;;;;;10.00;2.28;;;14.90;83.80;;;;;;4241957;27;20133;-63
2021/12/20 07:33:49;;;;;;;9.70;2.17;;;14.80;83.70;;;;;;4225665;28;20044;-62
2021/12/20 07:36:14;;;;;;;12.70;2.50;;;14.80;83.40;;;;;;4227158;28;20058;-62
2021/12/20 07:38:38;;;;;;;10.77;2.92;;;14.70;83.30;;;;;;4226945;27;20048;-64
2021/12/20 07:41:00;;;;;;;13.32;2.33;;;14.70;82.90;;;;;;4227344;28;20066;-62
2021/12/20 07:43:23;;;;;;;9.80;2.28;;;14.70;83.50;;;;;;4224807;28;20051;-62
2021/12/20 07:45:47;;;;;;;11.82;2.22;;;14.70;83.60;;;;;;4226619;28;20050;-63
2021/12/20 07:48:09;;;;;;;9.75;2.30;;;14.70;83.00;;;;;;4226301;27;20586;-63
2021/12/20 07:50:32;;;;;;;12.38;3.03;;;14.70;82.70;;;;;;4226524;27;20050;-62
2021/12/20 07:52:54;;;;;;;58.38;23.83;;;14.70;82.50;;;;;;4227034;27;20128;-62
2021/12/20 07:55:17;;;;;;;152.23;61.53;;;14.70;82.10;;;;;;4226540;27;20043;-62
2021/12/20 07:57:40;;;;;;;91.72;36.65;;;14.60;81.10;;;;;;4193200;28;20044;-61
2021/12/20 08:00:02;;;;;;;49.72;18.67;;;14.60;81.30;;;;;;4193029;28;20238;-62
2021/12/20 08:02:33;;;;;;;17.98;7.88;;;14.50;81.20;;;;;;4192717;28;20411;-62
2021/12/20 08:04:55;;;;;;;17.85;7.82;;;14.50;81.50;;;;;;4193108;28;20062;-62
2021/12/20 08:07:18;;;;;;;15.27;4.88;;;14.50;81.30;;;;;;4193217;28;20511;-62
2021/12/20 08:09:40;;;;;;;12.50;2.88;;;14.50;80.90;;;;;;4206028;28;20048;-61
2021/12/20 08:12:03;;;;;;;8.88;2.72;;;14.40;80.50;;;;;;4224364;27;20040;-62
2021/12/20 08:14:26;;;;;;;14.55;4.00;;;14.40;80.10;;;;;;4209680;28;20048;-61
2021/12/20 08:16:48;;;;;;;13.00;4.63;;;14.30;80.00;;;;;;4192890;28;20060;-62
2021/12/20 08:19:10;;;;;;;13.27;3.88;;;14.30;79.80;;;;;;4192946;28;20040;-59
2021/12/20 08:21:32;;;;;;;11.77;3.60;;;14.30;79.40;;;;;;4194102;28;20045;-60
2021/12/20 08:23:54;;;;;;;11.38;2.92;;;14.20;79.20;;;;;;4205230;28;20133;-60
2021/12/20 08:26:17;;;;;;;10.63;2.95;;;14.20;78.60;;;;;;4209681;28;20453;-59
2021/12/20 08:28:41;;;;;;;13.40;3.53;;;14.20;78.30;;;;;;4221791;28;20113;-60
2021/12/20 08:31:03;;;;;;;13.23;3.80;;;14.10;76.00;;;;;;4225453;28;20055;-60
2021/12/20 08:33:25;;;;;;;16.08;4.20;;;14.00;75.40;;;;;;4225792;27;20044;-60
2021/12/20 08:35:49;;;;;;;18.17;4.60;;;14.00;75.90;;;;;;4226027;27;20066;-60
2021/12/20 08:38:11;;;;;;;21.60;4.55;;;13.90;76.20;;;;;;4219345;27;20139;-60
2021/12/20 08:40:34;;;;;;;14.65;4.63;;;13.80;75.90;;;;;;4208314;28;20102;-59
2021/12/20 08:42:56;;;;;;;23.27;4.28;;;13.80;77.00;;;;;;4224285;27;20054;-59
2021/12/20 08:45:20;;;;;;;17.75;4.10;;;13.80;77.60;;;;;;4225784;27;20074;-60
2021/12/20 08:47:45;;;;;;;22.92;4.35;;;13.70;77.80;;;;;;4225777;27;20055;-60
2021/12/20 08:50:10;;;;;;;15.02;4.03;;;13.60;78.10;;;;;;4226312;27;20046;-60
2021/12/20 08:52:32;;;;;;;17.65;4.57;;;13.60;77.70;;;;;;4216725;28;20044;-60
2021/12/20 08:54:55;;;;;;;18.27;4.30;;;13.60;78.70;;;;;;4209222;28;20051;-60
2021/12/20 08:57:17;;;;;;;18.77;4.13;;;13.60;78.60;;;;;;4201936;28;20041;-59
2021/12/20 08:59:39;;;;;;;16.25;3.50;;;13.50;78.70;;;;;;4204966;28;20448;-59
2021/12/20 09:02:06;;;;;;;17.80;3.90;;;13.50;78.50;;;;;;4206288;28;20058;-60
2021/12/20 09:04:29;;;;;;;15.23;3.53;;;13.50;80.20;;;;;;4190430;28;20053;-59
2021/12/20 09:06:51;;;;;;;15.68;4.72;;;13.60;84.10;;;;;;4197356;27;20048;-59
2021/12/20 09:09:15;;;;;;;18.70;4.85;;;14.00;83.90;;;;;;4215808;27;20055;-59
2021/12/20 09:11:38;;;;;;;12.32;4.70;;;14.60;81.40;;;;;;4211549;28;20048;-60
2021/12/20 09:14:05;;;;;;;14.30;3.67;;;15.30;78.60;;;;;;4214196;28;20113;-60
2021/12/20 09:16:27;;;;;;;9.68;3.35;;;16.00;75.10;;;;;;4209425;28;20039;-59
2021/12/20 09:18:51;;;;;;;15.18;3.67;;;16.80;71.70;;;;;;4209052;28;20117;-61
2021/12/20 09:21:13;;;;;;;15.27;3.65;;;17.50;68.60;;;;;;4213459;28;20569;-60
2021/12/20 09:23:35;;;;;;;15.70;3.40;;;18.10;66.10;;;;;;4197376;28;20065;-58
2021/12/20 09:25:58;;;;;;;12.93;3.88;;;18.50;64.20;;;;;;4204450;28;20048;-60
2021/12/20 09:28:20;;;;;;;14.85;3.38;;;18.80;63.00;;;;;;4206949;28;20060;-60
2021/12/20 09:30:44;;;;;;;10.48;3.97;;;18.90;62.30;;;;;;4206950;28;20139;-59
2021/12/20 09:33:07;;;;;;;12.75;4.25;;;18.90;62.10;;;;;;4222875;27;20077;-60
2021/12/20 09:35:31;;;;;;;11.90;4.53;;;18.80;62.20;;;;;;4218452;28;20047;-59
2021/12/20 09:37:53;;;;;;;11.93;4.13;;;18.60;62.60;;;;;;4201240;28;20051;-60
2021/12/20 09:40:15;;;;;;;11.35;4.20;;;18.40;63.40;;;;;;4220831;28;20051;-59
2021/12/20 09:42:47;;;;;;;11.40;4.68;;;18.20;64.30;;;;;;4204753;28;20047;-59
2021/12/20 09:45:10;;;;;;;13.55;4.40;;;18.00;65.10;;;;;;4205317;28;20399;-60
2021/12/20 09:47:33;;;;;;;9.68;3.72;;;17.90;66.00;;;;;;4195218;28;20048;-59
2021/12/20 09:49:56;;;;;;;9.10;3.53;;;18.00;66.00;;;;;;4214872;28;20097;-59
2021/12/20 09:52:20;;;;;;;8.63;3.22;;;18.00;65.40;;;;;;4198560;28;20079;-60
2021/12/20 09:54:42;;;;;;;8.75;3.58;;;18.10;65.50;;;;;;4189563;28;20056;-60
2021/12/20 09:57:08;;;;;;;6.10;3.30;;;18.00;65.30;;;;;;4218601;28;20055;-59
2021/12/20 09:59:31;;;;;;;5.07;2.40;;;17.90;65.60;;;;;;4219672;28;20656;-60
2021/12/20 10:01:54;;;;;;;3.58;2.45;;;17.80;66.40;;;;;;4212472;28;20105;-60
2021/12/20 10:04:16;;;;;;;5.70;2.38;;;17.80;66.70;;;;;;4216025;28;20140;-60
2021/12/20 10:06:38;;;;;;;7.50;2.60;;;17.80;66.80;;;;;;4214539;28;20075;-59
2021/12/20 10:09:10;;;;;;;6.75;2.08;;;17.80;66.60;;;;;;4211216;28;20044;-60
2021/12/20 10:11:32;;;;;;;4.90;2.08;;;17.80;66.80;;;;;;4220464;28;20163;-60
2021/12/20 10:14:03;;;;;;;4.50;2.10;;;17.70;67.00;;;;;;4209173;28;20105;-62
2021/12/20 10:16:26;;;;;;;;;;;17.80;66.90;;;;;;4206700;28;20043;-59
2021/12/20 10:18:49;;;;;;;5.10;1.98;;;17.80;67.10;;;;;;4207017;28;19924;-60
2021/12/20 10:21:11;;;;;;;3.35;1.75;;;17.80;67.20;;;;;;4216344;28;20142;-59
2021/12/20 10:23:39;;;;;;;3.00;1.75;;;17.80;67.40;;;;;;4209748;28;20130;-60
2021/12/20 10:26:13;;;;;;;2.40;1.45;;;17.70;67.70;;;;;;4212089;28;20048;-59
2021/12/20 10:28:37;;;;;;;4.40;2.53;;;17.70;68.10;;;;;;4216738;28;20062;-60
2021/12/20 10:31:02;;;;;;;2.65;1.70;;;17.70;68.40;;;;;;4215849;28;20112;-58
2021/12/20 10:33:25;;;;;;;3.00;2.00;;;17.80;68.40;;;;;;4208049;28;20059;-60
2021/12/20 10:35:49;;;;;;;3.42;2.00;;;17.80;68.00;;;;;;4220121;28;20087;-60
2021/12/20 10:38:29;;;;;;;6.93;2.13;;;17.90;67.80;;;;;;4211684;28;20079;-60
2021/12/20 10:40:53;;;;;;;3.10;1.83;;;17.80;67.60;;;;;;4214686;28;20544;-60
2021/12/20 10:43:21;;;;;;;5.78;1.65;;;17.80;68.30;;;;;;4211428;28;20047;-57
2021/12/20 10:45:44;;;;;;;2.70;1.67;;;17.80;69.30;;;;;;4215011;28;20040;-57
2021/12/20 10:48:11;;;;;;;3.33;1.90;;;17.80;68.60;;;;;;4212587;28;20056;-58
2021/12/20 10:50:40;;;;;;;5.68;2.08;;;17.80;68.30;;;;;;4214673;28;20097;-58
2021/12/20 10:53:15;;;;;;;6.10;2.00;;;17.70;68.50;;;;;;4213675;28;20498;-60
2021/12/20 10:55:39;;;;;;;4.55;2.38;;;17.60;68.80;;;;;;4219333;27;20156;-60
2021/12/20 10:58:18;;;;;;;3.75;2.05;;;17.50;70.40;;;;;;4218113;28;20048;-60
2021/12/20 11:00:42;;;;;;;5.05;2.17;;;17.50;69.80;;;;;;4221848;27;20136;-60
2021/12/20 11:03:22;;;;;;;4.40;2.10;;;17.50;70.30;;;;;;4225333;27;20066;-60
2021/12/20 11:05:58;;;;;;;8.82;2.58;;;17.50;71.10;;;;;;4209013;28;20040;-60
2021/12/20 11:11:10;;;;;;;5.43;2.53;;;17.60;69.90;;;;;;4212918;27;20048;-59
2021/12/20 11:13:38;;;;;;;11.57;2.67;;;17.50;71.00;;;;;;4214249;28;20104;-59
2021/12/20 11:16:27;;;;;;;8.63;2.35;;;17.50;70.10;;;;;;4215015;28;20043;-59
2021/12/20 11:19:17;;;;;;;6.78;2.38;;;17.60;70.20;;;;;;4220134;27;20100;-59
2021/12/20 11:21:45;;;;;;;6.18;2.22;;;17.60;70.20;;;;;;4217183;27;20731;-59
2021/12/20 11:24:14;;;;;;;5.72;2.50;;;17.60;70.50;;;;;;4207974;28;20071;-59
2021/12/20 11:26:36;;;;;;;7.05;2.67;;;17.70;70.80;;;;;;4208954;28;20457;-59
2021/12/20 11:28:59;;;;;;;10.63;2.95;;;17.70;70.90;;;;;;4224475;28;20829;-58
2021/12/20 11:31:23;;;;;;;9.70;3.40;;;17.70;70.70;;;;;;4211371;28;20055;-58
2021/12/20 11:33:45;;;;;;;13.55;3.58;;;17.70;70.70;;;;;;4208594;28;20050;-58
2021/12/20 11:36:07;;;;;;;13.35;4.20;;;17.70;70.70;;;;;;4217959;27;20075;-58
2021/12/20 11:38:29;;;;;;;13.45;4.35;;;17.60;71.30;;;;;;4219404;27;20059;-59
2021/12/20 11:40:51;;;;;;;14.10;4.20;;;17.60;71.60;;;;;;4190886;28;20048;-59
2021/12/20 11:43:13;;;;;;;9.80;4.35;;;17.50;71.80;;;;;;4191809;28;20060;-59
2021/12/20 11:45:36;;;;;;;10.48;4.07;;;17.50;72.00;;;;;;4191602;28;20072;-59
2021/12/20 11:48:06;;;;;;;8.70;3.42;;;17.40;72.20;;;;;;4193776;28;20044;-59
2021/12/20 11:50:33;;;;;;;13.48;4.03;;;17.40;72.40;;;;;;4208243;28;20094;-59
2021/12/20 11:53:06;;;;;;;13.45;3.97;;;17.30;72.80;;;;;;4221913;27;20066;-59
2021/12/20 11:55:30;;;;;;;6.63;3.58;;;17.30;73.00;;;;;;4217872;28;20043;-58
2021/12/20 11:57:53;;;;;;;11.65;3.25;;;17.40;73.20;;;;;;4222659;27;20131;-59
2021/12/20 12:00:27;;;;;;;11.60;4.13;;;17.50;73.00;;;;;;4212719;28;20506;-59
2021/12/20 12:02:51;;;;;;;14.70;4.97;;;17.50;72.50;;;;;;4204165;28;20116;-59
2021/12/20 12:05:17;;;;;;;12.23;4.28;;;17.60;72.40;;;;;;4196845;28;20052;-59
2021/12/20 12:07:41;;;;;;;14.52;4.28;;;17.70;72.10;;;;;;4200128;28;20053;-59
2021/12/20 12:10:07;;;;;;;7.65;3.58;;;17.70;71.80;;;;;;4199353;28;20467;-59
2021/12/20 12:12:30;;;;;;;15.27;4.43;;;17.80;71.50;;;;;;4197152;28;20056;-59
2021/12/20 12:15:06;;;;;;;8.95;3.72;;;17.80;71.60;;;;;;4221694;28;20516;-60
2021/12/20 12:17:50;;;;;;;9.23;4.40;;;17.80;71.60;;;;;;4217525;27;20418;-61
2021/12/20 12:20:14;;;;;;;11.82;4.30;;;17.90;71.40;;;;;;4192864;28;20395;-59
2021/12/20 12:22:41;;;;;;;17.15;5.10;;;17.90;71.30;;;;;;4212891;28;20048;-60
2021/12/20 12:25:10;;;;;;;15.48;3.80;;;17.90;70.90;;;;;;4219197;27;20059;-58
2021/12/20 12:27:34;;;;;;;13.80;5.15;;;17.80;70.30;;;;;;4220982;27;20099;-58
2021/12/20 12:30:29;;;;;;;17.38;4.82;;;17.80;70.70;;;;;;4220467;28;20134;-59
2021/12/20 12:33:27;;;;;;;15.57;5.32;;;17.60;69.10;;;;;;4206744;28;20138;-59
2021/12/20 12:35:53;;;;;;;15.25;4.80;;;17.50;71.40;;;;;;4194873;28;20049;-61